KGVT

Majors Airport

Greenville, Texas, USA
METAR KGVT 230810Z AUTO 00000KT 10SM CLR 21/21 A3000 RMK AO2
Observed Flight Rules
May-23 @ 08:10 UTC (25 minutes ago) Visual Flight Rules
Visibility Clouds
10 miles
  • Clear skies
Temperatures Readings
Current 21°C / 70°F
Dewpoint 21°C / 70°F
Humidity 100%
Altimeter 30" Hg
Pressure 1016 hPa
Elevation 163
METAR KGVT 230810Z AUTO 00000KT 10SM CLR 21/21 A3000 RMK AO2
Observed Flight Rules
May-23 @ 08:10 UTC
(25 minutes ago)
VFR
Clouds
  • Clear skies
Temperature Dewpoint
21°C / 70°F 21°C / 70°F
Humidity Altimeter Pressure
100% 30" Hg 1016 hPa